Time;durP1;ratioP1;P1;durP2;ratioP2;P2;SDS_P1;SDS_P2;PMS_P1;PMS_P2;Temp;Humidity;BMP_temperature;BMP_pressure;BME280_temperature;BME280_humidity;BME280_pressure;Samples;Min_cycle;Max_cycle;Signal;HPM_P1;HPM_P2
2024/01/25 00:09:53;;;;;;;5.40;2.60;;;;;;;5.04;100.00;98687.45;432735;1257;139685;-61
2024/01/25 00:19:59;;;;;;;7.20;1.90;;;;;;;5.04;100.00;98693.68;432491;1260;139429;-61
2024/01/25 00:30:07;;;;;;;10.50;3.40;;;;;;;5.04;100.00;98703.22;432640;1260;140521;-60
2024/01/25 00:40:14;;;;;;;15.70;2.80;;;;;;;5.04;100.00;98709.49;434526;1257;140435;-61
2024/01/25 00:50:23;;;;;;;5.50;2.10;;;;;;;4.99;100.00;98722.40;434700;1257;140023;-61
2024/01/25 01:00:32;;;;;;;8.00;2.20;;;;;;;4.96;100.00;98739.58;437963;1257;139674;-60
2024/01/25 01:10:38;;;;;;;4.00;1.60;;;;;;;4.95;100.00;98749.34;434984;1257;139187;-61
2024/01/25 01:20:43;;;;;;;3.00;1.60;;;;;;;4.90;100.00;98743.69;432935;1257;139819;-60
2024/01/25 01:30:49;;;;;;;6.80;2.00;;;;;;;4.84;100.00;98742.13;432671;1257;139217;-60
2024/01/25 01:40:56;;;;;;;6.10;1.80;;;;;;;4.74;100.00;98740.39;432844;1260;139716;-61
2024/01/25 01:51:02;;;;;;;6.10;2.40;;;;;;;4.65;100.00;98724.40;433191;1259;140514;-61
2024/01/25 02:01:08;;;;;;;6.90;2.90;;;;;;;4.60;100.00;98728.12;432591;1257;139548;-61
2024/01/25 02:11:15;;;;;;;7.50;2.50;;;;;;;4.58;100.00;98732.42;433102;1260;140489;-61
2024/01/25 02:21:20;;;;;;;9.80;2.20;;;;;;;4.56;100.00;98748.63;432896;1260;140289;-61
2024/01/25 02:31:26;;;;;;;5.40;2.30;;;;;;;4.52;100.00;98736.20;432637;1258;246676;-61
2024/01/25 02:41:33;;;;;;;6.10;2.00;;;;;;;4.49;100.00;98734.92;432852;1259;140195;-61
2024/01/25 02:51:38;;;;;;;10.20;3.00;;;;;;;4.50;100.00;98742.70;433227;1257;140056;-60
2024/01/25 03:01:45;;;;;;;5.40;2.50;;;;;;;4.46;100.00;98741.35;433219;1257;140440;-60
2024/01/25 03:11:51;;;;;;;7.10;3.00;;;;;;;4.39;100.00;98736.70;436619;1256;139381;-60
2024/01/25 03:21:58;;;;;;;10.50;2.10;;;;;;;4.31;100.00;98729.64;433063;1258;139381;-60
2024/01/25 03:32:05;;;;;;;5.20;2.30;;;;;;;4.29;100.00;98736.14;437004;1255;141025;-60
2024/01/25 03:42:10;;;;;;;11.60;2.80;;;;;;;4.27;100.00;98746.30;433065;1258;140717;-61
2024/01/25 03:52:16;;;;;;;5.50;1.90;;;;;;;4.19;100.00;98744.46;432717;1259;139626;-60
2024/01/25 04:02:22;;;;;;;10.40;3.10;;;;;;;4.13;100.00;98744.22;433051;1257;140972;-60
2024/01/25 04:12:29;;;;;;;7.70;2.30;;;;;;;4.11;100.00;98740.89;434594;1256;140808;-61
2024/01/25 04:22:34;;;;;;;18.00;4.40;;;;;;;4.11;100.00;98744.86;432749;1260;139266;-59
2024/01/25 04:32:40;;;;;;;9.40;3.20;;;;;;;4.13;100.00;98746.16;433072;1258;140243;-60
2024/01/25 04:42:46;;;;;;;7.10;2.30;;;;;;;4.14;100.00;98740.52;433248;1260;139506;-60
2024/01/25 04:52:52;;;;;;;8.30;3.00;;;;;;;4.16;100.00;98743.05;432749;1259;140947;-60
2024/01/25 05:02:58;;;;;;;17.20;3.70;;;;;;;4.15;100.00;98739.60;433117;1260;139464;-60
2024/01/25 05:13:04;;;;;;;9.00;3.10;;;;;;;4.16;100.00;98754.14;432814;1260;140232;-60
2024/01/25 05:23:09;;;;;;;10.80;2.70;;;;;;;4.18;100.00;98755.04;432809;1257;139615;-59
2024/01/25 05:33:15;;;;;;;8.80;2.90;;;;;;;4.17;100.00;98767.57;432672;1258;139775;-60
2024/01/25 05:43:21;;;;;;;7.70;3.50;;;;;;;4.09;100.00;98776.34;432532;1258;139547;-61
2024/01/25 05:53:27;;;;;;;9.20;3.00;;;;;;;3.94;100.00;98794.87;432579;1260;141440;-63
2024/01/25 06:03:33;;;;;;;13.50;3.00;;;;;;;3.79;100.00;98799.58;432720;1257;139346;-59
2024/01/25 06:13:39;;;;;;;11.10;4.40;;;;;;;3.67;100.00;98806.73;432860;1260;141602;-60
2024/01/25 06:23:45;;;;;;;6.10;2.20;;;;;;;3.59;100.00;98808.84;432392;1256;140791;-60
2024/01/25 06:33:52;;;;;;;10.90;3.60;;;;;;;3.50;100.00;98812.38;432866;1258;139387;-61
2024/01/25 06:43:59;;;;;;;13.60;4.20;;;;;;;3.45;100.00;98821.27;434670;1257;139749;-60
2024/01/25 06:54:06;;;;;;;8.40;3.50;;;;;;;3.43;100.00;98828.30;432799;1256;140632;-61
2024/01/25 07:04:12;;;;;;;9.10;4.80;;;;;;;3.41;100.00;98842.42;433192;1257;139563;-64
2024/01/25 07:14:18;;;;;;;9.90;3.30;;;;;;;3.40;100.00;98843.14;434305;1257;140832;-63
2024/01/25 07:24:26;;;;;;;6.90;3.40;;;;;;;3.44;100.00;98851.95;432946;1258;140869;-63
2024/01/25 07:34:31;;;;;;;4.60;1.90;;;;;;;3.48;100.00;98852.11;433626;1260;140622;-63
2024/01/25 07:44:38;;;;;;;15.00;3.40;;;;;;;3.55;100.00;98854.06;433738;1260;139838;-62
2024/01/25 07:54:44;;;;;;;10.30;3.50;;;;;;;3.57;100.00;98858.46;432536;1259;139692;-62
2024/01/25 08:04:50;;;;;;;6.10;2.30;;;;;;;3.61;100.00;98864.84;433434;1258;140522;-66
2024/01/25 08:14:56;;;;;;;5.80;1.70;;;;;;;3.68;100.00;98878.55;432734;1260;139409;-68
2024/01/25 08:25:04;;;;;;;5.10;2.10;;;;;;;3.73;100.00;98885.04;433031;1259;139708;-64
2024/01/25 08:35:11;;;;;;;8.70;2.40;;;;;;;3.82;100.00;98899.55;435660;1256;140161;-65
2024/01/25 08:45:17;;;;;;;2.40;1.30;;;;;;;3.88;100.00;98913.26;436033;1259;139610;-62
2024/01/25 08:55:22;;;;;;;5.20;2.00;;;;;;;3.94;100.00;98928.58;432576;1261;139356;-62
2024/01/25 09:05:29;;;;;;;3.70;2.00;;;;;;;4.07;100.00;98941.84;432535;1256;140124;-63
2024/01/25 09:15:35;;;;;;;6.70;2.30;;;;;;;4.14;100.00;98959.19;432840;1260;140494;-61
2024/01/25 09:25:42;;;;;;;9.30;2.80;;;;;;;4.18;100.00;98968.33;432734;1258;140526;-62
2024/01/25 09:35:48;;;;;;;6.40;1.90;;;;;;;4.29;100.00;98982.38;433089;1259;140569;-64
2024/01/25 09:45:56;;;;;;;8.00;2.20;;;;;;;4.40;100.00;98999.16;436607;1260;139501;-63
2024/01/25 09:56:07;;;;;;;4.80;2.40;;;;;;;4.53;100.00;99005.13;434281;1259;139786;-63
2024/01/25 10:06:13;;;;;;;8.10;2.30;;;;;;;4.60;100.00;99003.74;432710;1259;141130;-63
2024/01/25 10:16:20;;;;;;;3.90;1.30;;;;;;;4.65;100.00;99011.17;433035;1261;139518;-60
2024/01/25 10:26:29;;;;;;;3.90;2.00;;;;;;;4.69;100.00;99014.60;433682;1260;140159;-63
2024/01/25 10:36:36;;;;;;;3.60;1.20;;;;;;;4.66;100.00;99029.65;434994;1259;140071;-61
2024/01/25 10:46:42;;;;;;;6.30;2.20;;;;;;;4.65;100.00;99039.75;432831;1259;139790;-64
2024/01/25 10:56:49;;;;;;;5.80;1.50;;;;;;;4.69;100.00;99054.47;433406;1260;140119;-60
2024/01/25 11:07:05;;;;;;;5.90;1.60;;;;;;;4.64;100.00;99068.42;432843;1261;139379;-60
2024/01/25 11:17:23;;;;;;;5.30;2.40;;;;;;;4.56;100.00;99076.25;432773;1259;139375;-60
2024/01/25 11:27:29;;;;;;;6.40;2.10;;;;;;;4.48;100.00;99080.23;432761;1259;139695;-65
2024/01/25 11:37:35;;;;;;;2.80;1.30;;;;;;;4.47;100.00;99078.23;432949;1260;139701;-62
2024/01/25 11:47:42;;;;;;;5.20;2.10;;;;;;;4.49;100.00;99082.27;433076;1260;139660;-63
2024/01/25 11:57:48;;;;;;;3.80;1.60;;;;;;;4.43;100.00;99087.92;434288;1258;141534;-63
2024/01/25 12:07:54;;;;;;;2.60;1.10;;;;;;;4.42;100.00;99104.28;432683;1259;140490;-63
2024/01/25 12:18:01;;;;;;;6.30;2.10;;;;;;;4.44;100.00;99114.40;432670;1256;140500;-60
2024/01/25 12:28:08;;;;;;;5.60;2.00;;;;;;;4.38;100.00;99122.30;433084;1261;139700;-67
2024/01/25 12:38:14;;;;;;;4.90;2.10;;;;;;;4.27;100.00;99144.98;433999;1257;141019;-67
2024/01/25 12:48:20;;;;;;;5.40;2.10;;;;;;;4.22;100.00;99151.08;432499;1258;140385;-63
2024/01/25 12:58:27;;;;;;;4.90;3.20;;;;;;;4.15;100.00;99164.39;433809;1260;140536;-65
2024/01/25 13:08:32;;;;;;;4.30;2.40;;;;;;;4.08;100.00;99171.29;432745;1259;139190;-64
2024/01/25 13:18:38;;;;;;;3.70;1.60;;;;;;;3.99;100.00;99174.63;433897;1261;140711;-72
2024/01/25 13:28:44;;;;;;;5.30;2.70;;;;;;;3.91;100.00;99186.21;434507;1261;139387;-66
2024/01/25 13:38:50;;;;;;;3.00;1.70;;;;;;;3.88;100.00;99207.80;432876;1261;139227;-59
2024/01/25 13:48:56;;;;;;;10.10;2.30;;;;;;;3.89;100.00;99223.36;432558;1261;140077;-58
2024/01/25 13:59:02;;;;;;;3.40;1.80;;;;;;;3.90;100.00;99235.08;434988;1261;140167;-60
2024/01/25 14:09:08;;;;;;;2.20;1.40;;;;;;;3.89;100.00;99250.36;432827;1258;140516;-60
2024/01/25 14:19:14;;;;;;;4.40;3.30;;;;;;;3.84;100.00;99262.20;432742;1260;139669;-60
2024/01/25 14:29:20;;;;;;;6.30;2.80;;;;;;;3.79;100.00;99275.36;433254;1259;223098;-70
2024/01/25 14:39:26;;;;;;;4.50;2.60;;;;;;;3.74;100.00;99293.43;438200;1260;139501;-70
2024/01/25 14:49:33;;;;;;;4.20;2.10;;;;;;;3.69;100.00;99306.61;437953;1260;139328;-71
2024/01/25 14:59:39;;;;;;;4.50;1.80;;;;;;;3.62;100.00;99317.23;437505;1261;139447;-58
2024/01/25 15:09:45;;;;;;;3.30;1.80;;;;;;;3.57;100.00;99331.45;433112;1262;139294;-63
2024/01/25 15:19:51;;;;;;;1.90;1.30;;;;;;;3.52;100.00;99345.69;432495;1261;139773;-68
2024/01/25 15:29:57;;;;;;;3.70;1.90;;;;;;;3.45;100.00;99361.73;433480;1257;139267;-74
2024/01/25 15:40:10;;;;;;;1.60;1.50;;;;;;;3.38;100.00;99372.35;438133;1257;140357;-65
2024/01/25 15:50:18;;;;;;;3.00;1.70;;;;;;;3.35;100.00;99388.88;432737;1263;139401;-59
2024/01/25 16:00:25;;;;;;;4.40;2.30;;;;;;;3.33;100.00;99396.20;438560;1258;141006;-57
2024/01/25 16:10:30;;;;;;;3.20;1.50;;;;;;;3.34;100.00;99416.42;432968;1258;141013;-57
2024/01/25 16:20:36;;;;;;;1.50;1.20;;;;;;;3.35;100.00;99439.07;433099;1260;140987;-59
2024/01/25 16:30:42;;;;;;;4.40;1.80;;;;;;;3.34;100.00;99448.11;432851;1258;141173;-57
2024/01/25 16:40:48;;;;;;;4.40;2.20;;;;;;;3.30;100.00;99461.39;439844;1257;140714;-57
2024/01/25 16:50:54;;;;;;;3.90;1.90;;;;;;;3.26;100.00;99467.59;432566;1260;139611;-58
2024/01/25 17:01:01;;;;;;;4.30;1.90;;;;;;;3.23;100.00;99485.18;432645;1258;140766;-59
2024/01/25 17:11:07;;;;;;;2.60;1.90;;;;;;;3.23;100.00;99496.95;433039;1257;140188;-62
2024/01/25 17:21:13;;;;;;;4.70;2.50;;;;;;;3.22;100.00;99513.09;433516;1260;141454;-61
2024/01/25 17:31:19;;;;;;;1.20;1.00;;;;;;;3.03;100.00;99553.31;432737;1260;140886;-59
2024/01/25 17:41:25;;;;;;;1.00;0.90;;;;;;;2.46;100.00;99562.56;432576;1260;139438;-60
2024/01/25 17:51:30;;;;;;;3.10;1.30;;;;;;;2.00;100.00;99576.88;432603;1260;139667;-59
2024/01/25 18:01:36;;;;;;;2.30;1.20;;;;;;;1.70;100.00;99589.10;432344;1260;139141;-59
2024/01/25 18:11:42;;;;;;;2.40;2.10;;;;;;;1.52;100.00;99605.46;432365;1260;141728;-59
2024/01/25 18:21:48;;;;;;;1.90;1.70;;;;;;;1.42;100.00;99616.08;433003;1258;139033;-59
2024/01/25 18:31:54;;;;;;;2.50;1.50;;;;;;;1.33;100.00;99622.16;432609;1260;139558;-60
2024/01/25 18:42:00;;;;;;;1.90;1.60;;;;;;;1.24;100.00;99646.20;432767;1260;139885;-59
2024/01/25 18:52:08;;;;;;;1.90;1.80;;;;;;;1.11;100.00;99663.23;433417;1260;139446;-60
2024/01/25 19:02:16;;;;;;;3.60;2.50;;;;;;;0.91;100.00;99674.90;437459;1257;140142;-59
2024/01/25 19:12:21;;;;;;;5.10;2.40;;;;;;;0.82;100.00;99682.34;437231;1258;140268;-59
2024/01/25 19:22:27;;;;;;;2.20;1.90;;;;;;;0.67;100.00;99701.10;433312;1261;140692;-58
2024/01/25 19:32:33;;;;;;;2.70;2.10;;;;;;;0.49;100.00;99716.28;433468;1260;140301;-59
2024/01/25 19:42:39;;;;;;;5.20;2.60;;;;;;;0.48;100.00;99730.62;432952;1260;140652;-60
2024/01/25 19:52:45;;;;;;;4.80;3.10;;;;;;;0.39;100.00;99735.43;432870;1256;139954;-60
2024/01/25 20:02:54;;;;;;;3.60;2.50;;;;;;;0.12;100.00;99736.30;433458;1256;139305;-59
2024/01/25 20:13:00;;;;;;;4.60;2.80;;;;;;;-0.03;100.00;99741.55;437892;1257;139162;-60
2024/01/25 20:23:06;;;;;;;4.60;2.60;;;;;;;0.09;100.00;99750.47;432817;1260;141133;-60
2024/01/25 20:33:12;;;;;;;5.50;2.50;;;;;;;0.26;100.00;99768.05;433563;1258;139504;-59
2024/01/25 20:43:18;;;;;;;4.40;2.90;;;;;;;0.41;100.00;99773.11;432801;1258;140571;-59
2024/01/25 20:53:25;;;;;;;4.30;2.70;;;;;;;0.50;100.00;99780.86;432725;1260;141073;-60
2024/01/25 21:03:31;;;;;;;2.70;2.30;;;;;;;0.58;100.00;99785.72;433370;1256;139333;-59
2024/01/25 21:13:40;;;;;;;3.30;3.00;;;;;;;0.65;100.00;99792.13;435409;1257;139354;-58
2024/01/25 21:23:46;;;;;;;6.50;4.00;;;;;;;0.70;100.00;99799.95;433151;1260;139951;-61
2024/01/25 21:33:52;;;;;;;9.90;4.30;;;;;;;0.73;100.00;99810.22;433996;1257;139547;-59
2024/01/25 21:43:58;;;;;;;4.30;3.90;;;;;;;0.78;100.00;99826.16;432625;1258;139587;-59
2024/01/25 21:54:04;;;;;;;5.10;2.90;;;;;;;0.81;100.00;99830.23;432714;1258;139322;-60
2024/01/25 22:04:12;;;;;;;;;;;;;;;0.81;100.00;99836.44;433056;1258;139637;-60
2024/01/25 22:14:18;;;;;;;4.30;2.70;;;;;;;0.79;100.00;99844.58;434024;1258;127961;-59
2024/01/25 22:24:24;;;;;;;3.10;2.80;;;;;;;0.77;100.00;99850.48;432998;1257;140784;-59
2024/01/25 22:34:30;;;;;;;3.40;1.60;;;;;;;0.75;100.00;99856.91;432543;1257;140225;-60
2024/01/25 22:44:36;;;;;;;2.00;1.60;;;;;;;0.73;100.00;99873.98;433161;1258;139239;-60
2024/01/25 22:54:42;;;;;;;2.10;1.80;;;;;;;0.72;100.00;99889.17;433080;1257;140521;-60
2024/01/25 23:04:49;;;;;;;3.30;2.60;;;;;;;0.72;100.00;99903.31;433638;1257;139457;-59
2024/01/25 23:14:55;;;;;;;2.50;2.30;;;;;;;0.71;100.00;99916.25;433243;1258;140263;-60
2024/01/25 23:25:02;;;;;;;2.40;1.90;;;;;;;0.70;100.00;99911.79;432860;1258;139614;-59
2024/01/25 23:35:10;;;;;;;3.70;2.10;;;;;;;0.68;100.00;99913.72;435577;1257;140626;-59
2024/01/25 23:45:16;;;;;;;1.60;1.50;;;;;;;0.66;100.00;99932.52;433796;1258;139540;-60
2024/01/25 23:55:23;;;;;;;1.50;1.40;;;;;;;0.64;100.00;99955.49;432722;1256;140187;-59
